Time;durP1;ratioP1;P1;durP2;ratioP2;P2;SDS_P1;SDS_P2;PMS_P1;PMS_P2;Temp;Humidity;BMP_temperature;BMP_pressure;BME280_temperature;BME280_humidity;BME280_pressure;Samples;Min_cycle;Max_cycle;Signal;HPM_P1;HPM_P2
2023/08/04 00:00:53;;;;;;;1.63;1.00;;;20.50;69.40;;;;;;5073287;28;20726;-65
2023/08/04 00:03:18;;;;;;;0.90;0.90;;;20.60;68.70;;;;;;5073319;28;20253;-65
2023/08/04 00:05:44;;;;;;;1.33;1.13;;;20.50;68.60;;;;;;5072613;28;20738;-65
2023/08/04 00:08:09;;;;;;;1.10;1.00;;;20.50;68.50;;;;;;5073105;28;20668;-64
2023/08/04 00:10:35;;;;;;;1.10;1.00;;;20.50;68.60;;;;;;5073300;28;20170;-65
2023/08/04 00:13:00;;;;;;;1.58;1.08;;;20.50;68.50;;;;;;5071960;28;20170;-64
2023/08/04 00:15:26;;;;;;;1.20;1.10;;;20.50;68.60;;;;;;5072992;28;20205;-64
2023/08/04 00:17:51;;;;;;;1.45;0.90;;;20.60;68.70;;;;;;5073320;28;20181;-64
2023/08/04 00:20:17;;;;;;;0.93;0.93;;;20.50;68.60;;;;;;5072150;28;20261;-64
2023/08/04 00:22:42;;;;;;;1.73;1.00;;;20.50;68.60;;;;;;5072814;28;20174;-64
2023/08/04 00:25:08;;;;;;;1.33;1.23;;;20.50;68.60;;;;;;5072635;28;20202;-64
2023/08/04 00:27:34;;;;;;;2.10;1.23;;;20.50;68.50;;;;;;5072210;28;20782;-64
2023/08/04 00:29:59;;;;;;;2.20;1.10;;;20.50;68.60;;;;;;5072490;28;20646;-64
2023/08/04 00:32:25;;;;;;;1.90;1.02;;;20.50;68.60;;;;;;5073065;28;20258;-65
2023/08/04 00:34:51;;;;;;;1.30;1.15;;;20.50;68.60;;;;;;5071992;28;20182;-65
2023/08/04 00:37:16;;;;;;;1.42;1.10;;;20.50;68.60;;;;;;5072243;28;20186;-64
2023/08/04 00:39:42;;;;;;;1.10;1.00;;;20.50;68.60;;;;;;5072774;28;20214;-64
2023/08/04 00:42:08;;;;;;;1.45;1.30;;;20.50;68.60;;;;;;5071500;28;20301;-64
2023/08/04 00:44:33;;;;;;;1.50;1.40;;;20.50;68.60;;;;;;5072477;28;20170;-64
2023/08/04 00:46:59;;;;;;;1.20;1.10;;;20.50;68.60;;;;;;5071727;28;20182;-64
2023/08/04 00:49:24;;;;;;;1.98;1.13;;;20.50;68.60;;;;;;5072523;28;20174;-63
2023/08/04 00:51:50;;;;;;;1.52;1.20;;;20.40;68.50;;;;;;5072576;28;20258;-63
2023/08/04 00:54:16;;;;;;;1.20;1.10;;;20.50;68.60;;;;;;5071092;28;20380;-64
2023/08/04 00:56:42;;;;;;;1.98;1.13;;;20.50;68.60;;;;;;5072476;28;20170;-64
2023/08/04 00:59:07;;;;;;;1.20;1.10;;;20.40;68.50;;;;;;5072024;28;20710;-64
2023/08/04 01:01:33;;;;;;;1.88;1.20;;;20.50;68.60;;;;;;5071744;28;20174;-64
2023/08/04 01:03:58;;;;;;;2.67;1.38;;;20.40;68.50;;;;;;5072150;28;20174;-66
2023/08/04 01:07:01;;;;;;;1.35;1.17;;;20.50;68.60;;;;;;5072208;28;20214;-64
2023/08/04 01:09:35;;;;;;;1.25;1.15;;;20.40;68.60;;;;;;5071488;28;20185;-65
2023/08/04 01:12:20;;;;;;;0.90;0.90;;;20.50;68.60;;;;;;5054663;28;20174;-65
2023/08/04 01:14:47;;;;;;;1.38;1.17;;;20.40;68.50;;;;;;5072085;28;20253;-64
2023/08/04 01:17:29;;;;;;;1.40;1.30;;;20.40;68.50;;;;;;5069956;28;20182;-64
2023/08/04 01:19:55;;;;;;;1.08;1.02;;;20.40;69.40;;;;;;5072126;28;20174;-64
2023/08/04 01:22:21;;;;;;;1.33;1.00;;;20.40;68.50;;;;;;5071352;28;20177;-64
2023/08/04 01:24:47;;;;;;;1.45;1.35;;;20.40;68.50;;;;;;5072122;28;20206;-64
2023/08/04 01:27:13;;;;;;;1.30;1.20;;;20.40;68.50;;;;;;5070510;28;20312;-63
2023/08/04 01:29:41;;;;;;;1.17;1.08;;;20.40;68.50;;;;;;5071428;28;20587;-64
2023/08/04 01:32:06;;;;;;;1.38;1.25;;;20.40;68.50;;;;;;5054035;28;20234;-65
2023/08/04 01:34:32;;;;;;;0.82;0.80;;;20.40;68.50;;;;;;5070776;28;20249;-65
2023/08/04 01:36:57;;;;;;;1.95;0.85;;;20.40;68.50;;;;;;5069966;28;20174;-65
2023/08/04 01:39:25;;;;;;;1.33;1.23;;;20.40;68.50;;;;;;5070657;28;20170;-65
2023/08/04 01:41:51;;;;;;;1.23;1.00;;;20.40;68.50;;;;;;5071959;28;20227;-64
2023/08/04 01:44:16;;;;;;;1.52;1.40;;;20.40;68.50;;;;;;5070988;28;20189;-64
2023/08/04 01:46:42;;;;;;;1.50;1.10;;;20.40;68.60;;;;;;5071960;28;20260;-64
2023/08/04 01:49:09;;;;;;;2.28;1.35;;;20.40;68.50;;;;;;5071390;28;20641;-64
2023/08/04 01:51:35;;;;;;;1.40;1.23;;;20.40;68.50;;;;;;5071410;28;20322;-64
2023/08/04 01:54:01;;;;;;;1.83;1.30;;;20.40;68.60;;;;;;5071794;28;20174;-64
2023/08/04 01:56:26;;;;;;;1.90;1.20;;;20.40;68.60;;;;;;5071853;28;20175;-64
2023/08/04 01:58:52;;;;;;;1.42;1.10;;;20.50;68.60;;;;;;5071121;28;20206;-64
2023/08/04 02:01:18;;;;;;;1.10;1.00;;;20.40;68.50;;;;;;5071536;28;20185;-65
2023/08/04 02:03:43;;;;;;;1.17;1.08;;;20.40;68.50;;;;;;5071719;28;20178;-64
2023/08/04 02:06:09;;;;;;;1.45;1.35;;;20.40;68.50;;;;;;5072026;28;20206;-64
2023/08/04 02:08:35;;;;;;;1.23;1.10;;;20.40;68.60;;;;;;5075656;28;20633;-64
2023/08/04 02:11:00;;;;;;;1.58;1.17;;;20.40;68.60;;;;;;5075092;28;20201;-65
2023/08/04 02:13:26;;;;;;;1.85;1.35;;;20.30;68.50;;;;;;5074816;28;20197;-65
2023/08/04 02:15:51;;;;;;;1.95;1.23;;;20.40;68.50;;;;;;5075468;28;20178;-64
2023/08/04 02:18:17;;;;;;;1.48;1.02;;;20.40;68.50;;;;;;5074369;28;20629;-64
2023/08/04 02:20:42;;;;;;;2.05;1.05;;;20.40;68.50;;;;;;5075501;28;20258;-64
2023/08/04 02:23:08;;;;;;;1.13;1.00;;;20.30;68.50;;;;;;5074893;28;20167;-64
2023/08/04 02:25:35;;;;;;;2.22;1.48;;;20.30;69.30;;;;;;5074530;28;20218;-64
2023/08/04 02:28:00;;;;;;;0.93;0.93;;;20.30;68.50;;;;;;5074868;28;20175;-64
2023/08/04 02:30:26;;;;;;;1.20;1.10;;;20.30;68.50;;;;;;5075060;28;20175;-64
2023/08/04 02:32:51;;;;;;;1.50;1.15;;;20.30;68.50;;;;;;5074709;28;20204;-65
2023/08/04 02:35:17;;;;;;;1.48;0.90;;;20.30;68.50;;;;;;5074978;28;20181;-65
2023/08/04 02:37:42;;;;;;;1.10;1.10;;;20.30;68.50;;;;;;5075362;28;20477;-65
2023/08/04 02:40:09;;;;;;;1.42;1.23;;;20.30;68.50;;;;;;5073821;28;20231;-65
2023/08/04 02:42:34;;;;;;;1.77;1.48;;;20.30;68.50;;;;;;5074502;28;20301;-64
2023/08/04 02:45:00;;;;;;;1.30;1.20;;;20.30;69.30;;;;;;5074388;28;20293;-64
2023/08/04 02:47:25;;;;;;;1.40;1.27;;;20.30;68.60;;;;;;5074025;28;20198;-64
2023/08/04 02:49:51;;;;;;;1.40;1.23;;;20.30;68.50;;;;;;5074749;28;20533;-63
2023/08/04 02:52:16;;;;;;;1.45;1.27;;;20.30;69.30;;;;;;5074523;28;20252;-64
2023/08/04 02:54:42;;;;;;;1.33;1.23;;;20.30;68.50;;;;;;5073968;28;20186;-64
2023/08/04 02:57:08;;;;;;;1.20;1.10;;;20.30;68.50;;;;;;5074356;28;20170;-64
2023/08/04 02:59:33;;;;;;;1.13;1.00;;;20.30;68.50;;;;;;5074584;28;20174;-65
2023/08/04 03:01:59;;;;;;;0.80;0.80;;;20.30;68.50;;;;;;5073496;28;20304;-65
2023/08/04 03:04:24;;;;;;;1.58;1.20;;;20.30;69.40;;;;;;5074356;28;20205;-65
2023/08/04 03:06:50;;;;;;;2.38;1.40;;;20.20;68.50;;;;;;5074617;28;20214;-65
2023/08/04 03:09:15;;;;;;;0.88;0.88;;;20.30;68.50;;;;;;5073534;28;20189;-64
2023/08/04 03:11:42;;;;;;;1.30;1.20;;;20.40;68.60;;;;;;5074277;28;20170;-64
2023/08/04 03:14:07;;;;;;;1.08;0.98;;;20.30;68.50;;;;;;5073878;28;20220;-64
2023/08/04 03:16:33;;;;;;;0.80;0.80;;;20.30;68.50;;;;;;5073359;28;20175;-64
2023/08/04 03:18:59;;;;;;;1.33;1.13;;;20.30;68.50;;;;;;5073015;28;20174;-64
2023/08/04 03:21:24;;;;;;;1.23;1.13;;;20.30;68.50;;;;;;5074134;28;20236;-64
2023/08/04 03:23:50;;;;;;;1.63;1.30;;;20.30;68.50;;;;;;5073493;28;20185;-64
2023/08/04 03:26:15;;;;;;;1.42;1.25;;;20.30;68.50;;;;;;5074075;28;20301;-64
2023/08/04 03:28:41;;;;;;;1.20;1.10;;;20.30;68.50;;;;;;5073338;28;20174;-64
2023/08/04 03:31:06;;;;;;;1.08;0.98;;;20.30;68.50;;;;;;5073819;28;20202;-64
2023/08/04 03:33:32;;;;;;;1.25;1.15;;;20.30;68.60;;;;;;5072951;28;20181;-64
2023/08/04 03:35:57;;;;;;;1.52;1.40;;;20.30;68.50;;;;;;5072764;28;20175;-65
2023/08/04 03:38:23;;;;;;;1.20;1.10;;;20.30;68.50;;;;;;5074007;28;20178;-64
2023/08/04 03:40:49;;;;;;;1.20;1.10;;;20.30;68.50;;;;;;5073994;28;20190;-64
2023/08/04 03:43:14;;;;;;;1.33;1.23;;;20.30;68.50;;;;;;5072536;28;20226;-63
2023/08/04 03:45:40;;;;;;;1.15;1.05;;;20.30;68.50;;;;;;5073568;28;20202;-62
2023/08/04 03:48:05;;;;;;;1.75;1.50;;;20.30;68.50;;;;;;5073581;28;20232;-63
2023/08/04 03:50:31;;;;;;;1.23;1.13;;;20.30;68.50;;;;;;5073136;28;20201;-63
2023/08/04 03:52:56;;;;;;;1.38;1.02;;;20.20;68.40;;;;;;5073367;28;20215;-63
2023/08/04 03:55:22;;;;;;;1.08;1.05;;;20.30;68.50;;;;;;5073627;28;20541;-63
2023/08/04 03:57:47;;;;;;;1.63;1.30;;;20.20;68.50;;;;;;5072879;28;20575;-63
2023/08/04 04:00:13;;;;;;;2.90;1.00;;;20.30;68.50;;;;;;5073171;28;20190;-64
2023/08/04 04:02:39;;;;;;;1.35;1.20;;;20.30;68.50;;;;;;5073319;28;20181;-64
2023/08/04 04:05:05;;;;;;;1.38;1.10;;;20.30;68.50;;;;;;5071248;28;20198;-64
2023/08/04 04:07:30;;;;;;;1.58;1.30;;;20.40;68.60;;;;;;5073531;28;20225;-64
2023/08/04 04:09:56;;;;;;;1.45;1.10;;;20.20;68.50;;;;;;5073139;28;20175;-64
2023/08/04 04:12:21;;;;;;;1.20;1.10;;;20.20;68.50;;;;;;5072333;28;20174;-64
2023/08/04 04:14:47;;;;;;;2.20;1.40;;;20.20;68.50;;;;;;5073092;28;20260;-64
2023/08/04 04:17:13;;;;;;;1.52;1.30;;;20.20;68.50;;;;;;5072775;28;20174;-64
2023/08/04 04:19:38;;;;;;;1.13;1.02;;;20.20;68.50;;;;;;5072220;28;20174;-63
2023/08/04 04:22:04;;;;;;;1.88;1.00;;;20.20;68.50;;;;;;5072854;28;20195;-63
2023/08/04 04:24:29;;;;;;;1.00;1.00;;;20.20;68.50;;;;;;5072883;28;20177;-63
2023/08/04 04:26:55;;;;;;;1.48;1.20;;;20.20;68.50;;;;;;5072175;28;20216;-63
2023/08/04 04:29:20;;;;;;;1.40;1.30;;;20.20;68.50;;;;;;5072388;28;20638;-63
2023/08/04 04:31:46;;;;;;;1.10;1.00;;;20.20;68.40;;;;;;5072676;28;20213;-64
2023/08/04 04:34:12;;;;;;;1.05;0.88;;;20.30;68.50;;;;;;5071690;28;20193;-64
2023/08/04 04:36:37;;;;;;;1.67;1.02;;;20.20;68.40;;;;;;5072759;28;20182;-64
2023/08/04 04:39:03;;;;;;;1.67;1.55;;;20.20;68.40;;;;;;5071765;28;20166;-63
2023/08/04 04:41:29;;;;;;;1.00;1.00;;;20.20;68.40;;;;;;5072517;28;20708;-64
2023/08/04 04:43:56;;;;;;;1.33;1.23;;;20.20;69.30;;;;;;5072607;28;20170;-63
2023/08/04 04:46:21;;;;;;;1.10;1.00;;;20.20;68.50;;;;;;5071829;28;20359;-63
2023/08/04 04:48:47;;;;;;;1.23;1.13;;;20.20;68.30;;;;;;5072508;28;20261;-63
2023/08/04 04:51:13;;;;;;;1.90;1.55;;;20.20;68.40;;;;;;5072364;28;20193;-63
2023/08/04 04:53:39;;;;;;;1.40;1.30;;;20.20;68.30;;;;;;5071874;28;20249;-63
2023/08/04 04:56:05;;;;;;;1.50;1.40;;;20.20;68.30;;;;;;5072088;28;20221;-63
2023/08/04 04:58:31;;;;;;;2.08;1.10;;;20.20;68.30;;;;;;5072473;28;20167;-63
2023/08/04 05:01:03;;;;;;;1.25;1.15;;;20.20;68.30;;;;;;5071242;28;20170;-63
2023/08/04 05:03:28;;;;;;;1.83;1.38;;;20.20;68.30;;;;;;5072450;28;20170;-63
2023/08/04 05:05:54;;;;;;;1.65;1.45;;;20.20;68.30;;;;;;5072439;28;20580;-65
2023/08/04 05:08:19;;;;;;;1.60;1.30;;;20.30;68.40;;;;;;5071284;28;20217;-65
2023/08/04 05:10:52;;;;;;;1.80;1.33;;;20.20;68.50;;;;;;5072370;28;20193;-64
2023/08/04 05:13:18;;;;;;;2.03;1.33;;;20.20;68.30;;;;;;5072037;28;20181;-65
2023/08/04 05:15:45;;;;;;;1.50;1.40;;;20.30;68.30;;;;;;5070735;28;20174;-64
2023/08/04 05:18:11;;;;;;;1.40;1.30;;;20.20;68.30;;;;;;5071706;28;20170;-64
2023/08/04 05:20:36;;;;;;;1.30;1.20;;;20.30;68.40;;;;;;5072104;28;20269;-64
2023/08/04 05:23:02;;;;;;;1.40;1.30;;;20.20;68.30;;;;;;5070987;28;20178;-63
2023/08/04 05:25:27;;;;;;;1.42;1.20;;;20.20;68.30;;;;;;5072133;28;20206;-64
2023/08/04 05:27:53;;;;;;;1.77;1.20;;;20.20;68.30;;;;;;5072141;28;20196;-64
2023/08/04 05:30:18;;;;;;;1.70;1.40;;;20.20;68.30;;;;;;5070922;28;20192;-64
2023/08/04 05:32:45;;;;;;;1.95;1.15;;;20.30;68.40;;;;;;5071905;28;20198;-64
2023/08/04 05:35:10;;;;;;;1.40;1.30;;;20.20;68.30;;;;;;5071500;28;20179;-65
2023/08/04 05:37:36;;;;;;;1.60;1.20;;;20.30;68.40;;;;;;5071526;28;20189;-65
2023/08/04 05:40:04;;;;;;;1.58;1.30;;;20.30;68.30;;;;;;5071821;28;20281;-64
2023/08/04 05:42:29;;;;;;;1.50;1.40;;;20.30;68.30;;;;;;5074552;28;20226;-64
2023/08/04 05:44:55;;;;;;;1.60;1.40;;;20.20;68.30;;;;;;5076127;28;20206;-64
2023/08/04 05:47:25;;;;;;;1.50;1.35;;;20.30;68.30;;;;;;5075914;28;20303;-64
2023/08/04 05:49:51;;;;;;;1.42;1.33;;;20.30;68.40;;;;;;5075187;28;20605;-63
2023/08/04 05:52:16;;;;;;;1.98;1.50;;;20.30;68.40;;;;;;5075521;28;20186;-63
2023/08/04 05:54:42;;;;;;;1.27;1.10;;;20.20;68.30;;;;;;5065257;28;20179;-64
2023/08/04 05:57:08;;;;;;;1.60;1.25;;;20.20;68.40;;;;;;5054717;28;20198;-64
2023/08/04 05:59:33;;;;;;;1.60;1.48;;;20.30;68.50;;;;;;5055891;28;20249;-64
2023/08/04 06:01:59;;;;;;;1.15;1.00;;;20.30;68.50;;;;;;5055555;28;20172;-65
2023/08/04 06:04:24;;;;;;;2.55;1.55;;;20.30;68.50;;;;;;5054777;28;20169;-65
2023/08/04 06:06:50;;;;;;;1.67;1.50;;;20.30;68.50;;;;;;5055668;28;20210;-64
2023/08/04 06:09:15;;;;;;;1.95;1.42;;;20.30;68.40;;;;;;5055156;28;20649;-64
2023/08/04 06:11:41;;;;;;;1.15;1.10;;;20.30;68.50;;;;;;5054714;28;20168;-64
2023/08/04 06:14:07;;;;;;;1.95;1.50;;;20.30;68.50;;;;;;5055207;28;20515;-64
2023/08/04 06:16:32;;;;;;;1.15;1.05;;;20.30;68.50;;;;;;5055411;28;20192;-64
2023/08/04 06:18:58;;;;;;;1.75;1.27;;;20.30;68.40;;;;;;5054335;28;20182;-64
2023/08/04 06:21:23;;;;;;;1.08;1.08;;;20.30;68.40;;;;;;5055272;28;20182;-64
2023/08/04 06:23:49;;;;;;;1.88;1.35;;;20.30;68.40;;;;;;5055328;28;20575;-63
2023/08/04 06:26:14;;;;;;;1.58;1.48;;;20.30;68.40;;;;;;5053976;28;20536;-64
2023/08/04 06:28:40;;;;;;;1.33;1.08;;;20.30;68.40;;;;;;5055157;28;20172;-64
2023/08/04 06:31:06;;;;;;;1.10;1.00;;;20.40;68.40;;;;;;5054688;28;20183;-64
2023/08/04 06:33:31;;;;;;;1.45;1.30;;;20.30;68.20;;;;;;5054416;28;20274;-64
2023/08/04 06:35:57;;;;;;;1.38;1.27;;;20.30;68.20;;;;;;5054771;28;20175;-65
2023/08/04 06:38:23;;;;;;;1.30;0.80;;;20.40;68.20;;;;;;5053697;28;20178;-64
2023/08/04 06:40:48;;;;;;;1.58;1.30;;;20.40;68.30;;;;;;5054179;28;20183;-64
2023/08/04 06:43:14;;;;;;;2.10;1.20;;;20.40;68.30;;;;;;5054359;28;20223;-64
2023/08/04 06:45:40;;;;;;;0.98;0.98;;;20.40;68.20;;;;;;5054154;28;20211;-63
2023/08/04 06:48:05;;;;;;;1.50;1.40;;;20.40;68.20;;;;;;5054799;28;20221;-63
2023/08/04 06:50:34;;;;;;;1.33;1.23;;;20.40;68.20;;;;;;5054891;28;20171;-63
2023/08/04 06:52:59;;;;;;;1.42;1.20;;;20.40;68.10;;;;;;5053718;28;20221;-64
2023/08/04 06:55:28;;;;;;;1.48;1.30;;;20.40;68.10;;;;;;5054547;28;20175;-64
2023/08/04 06:57:53;;;;;;;1.48;1.38;;;20.40;68.20;;;;;;5054778;28;20175;-64
2023/08/04 07:00:19;;;;;;;1.20;1.10;;;20.40;68.10;;;;;;5053700;28;20572;-65
2023/08/04 07:02:49;;;;;;;1.27;1.17;;;20.40;68.10;;;;;;5054287;28;20514;-65
2023/08/04 07:05:15;;;;;;;1.15;1.13;;;20.40;68.90;;;;;;5054082;28;20203;-64
2023/08/04 07:07:40;;;;;;;1.70;1.60;;;20.50;68.20;;;;;;5053732;28;20183;-64
2023/08/04 07:10:07;;;;;;;1.23;1.13;;;20.50;68.00;;;;;;5053913;28;20178;-64
2023/08/04 07:12:33;;;;;;;1.23;1.13;;;20.50;68.80;;;;;;5054345;28;20703;-63
2023/08/04 07:14:58;;;;;;;1.17;1.08;;;20.50;67.90;;;;;;5053228;28;20546;-63
2023/08/04 07:17:24;;;;;;;1.67;1.58;;;20.60;67.80;;;;;;5054203;28;20182;-64
2023/08/04 07:19:50;;;;;;;1.30;1.20;;;20.60;67.60;;;;;;5054119;28;20183;-64
2023/08/04 07:22:15;;;;;;;1.50;1.40;;;20.60;67.50;;;;;;5053182;28;20181;-65
2023/08/04 07:24:41;;;;;;;1.45;1.30;;;20.70;67.50;;;;;;5053934;28;20179;-63
2023/08/04 07:27:06;;;;;;;0.95;0.95;;;20.60;67.40;;;;;;5053932;28;20218;-63
2023/08/04 07:29:34;;;;;;;1.20;1.10;;;20.60;67.50;;;;;;5053480;28;20206;-64
2023/08/04 07:32:00;;;;;;;1.65;1.10;;;20.70;67.60;;;;;;5053810;28;20229;-65
2023/08/04 07:34:25;;;;;;;1.40;1.30;;;20.60;67.50;;;;;;5053871;28;20179;-65
2023/08/04 07:36:51;;;;;;;1.30;1.20;;;20.60;67.60;;;;;;5053217;28;20179;-64
2023/08/04 07:39:16;;;;;;;1.42;1.30;;;20.60;68.50;;;;;;5053475;28;20638;-64
2023/08/04 07:41:42;;;;;;;1.92;1.40;;;20.60;67.80;;;;;;5053590;28;20241;-69
2023/08/04 07:44:08;;;;;;;1.15;0.90;;;20.60;68.00;;;;;;5052618;28;20179;-69
2023/08/04 07:46:33;;;;;;;1.83;1.30;;;20.60;67.90;;;;;;5053653;28;20248;-68
2023/08/04 07:48:59;;;;;;;1.77;1.13;;;20.50;67.90;;;;;;5056138;28;20262;-67
2023/08/04 07:51:24;;;;;;;3.33;1.40;;;20.60;68.00;;;;;;5057961;28;20266;-66
2023/08/04 07:53:50;;;;;;;3.20;1.50;;;20.60;68.20;;;;;;5071179;28;20179;-67
2023/08/04 07:56:15;;;;;;;1.40;1.30;;;20.60;68.30;;;;;;5069997;28;20288;-68
2023/08/04 07:58:41;;;;;;;1.65;1.25;;;20.60;68.30;;;;;;5053450;28;20209;-67
2023/08/04 08:01:06;;;;;;;1.58;1.33;;;20.60;68.30;;;;;;5052989;28;20186;-68
2023/08/04 08:03:32;;;;;;;1.45;1.30;;;20.60;68.40;;;;;;5051929;28;20171;-68
2023/08/04 08:05:58;;;;;;;1.50;1.40;;;20.60;68.50;;;;;;5065032;28;20225;-68
2023/08/04 08:08:24;;;;;;;1.50;1.40;;;20.50;68.40;;;;;;5073074;28;20227;-68
2023/08/04 08:10:50;;;;;;;1.40;1.08;;;20.60;68.30;;;;;;5072667;28;20261;-68
2023/08/04 08:13:15;;;;;;;1.65;1.20;;;20.60;68.20;;;;;;5072755;28;20312;-67
2023/08/04 08:15:41;;;;;;;1.77;1.27;;;20.60;68.20;;;;;;5073227;28;20189;-67
2023/08/04 08:18:06;;;;;;;1.73;1.33;;;20.60;69.20;;;;;;5072178;28;20626;-67
2023/08/04 08:20:32;;;;;;;3.67;1.70;;;20.50;68.40;;;;;;5072978;28;20201;-67
2023/08/04 08:22:57;;;;;;;1.50;1.40;;;20.60;68.50;;;;;;5060826;28;20164;-66
2023/08/04 08:25:23;;;;;;;2.08;1.52;;;20.60;68.80;;;;;;5052429;28;20723;-67
2023/08/04 08:27:49;;;;;;;2.65;1.60;;;20.50;69.70;;;;;;5052978;28;20171;-67
2023/08/04 08:30:14;;;;;;;1.63;1.50;;;20.60;69.10;;;;;;5052562;28;20175;-67
2023/08/04 08:32:40;;;;;;;2.03;1.40;;;20.60;69.30;;;;;;5051792;28;20199;-69
2023/08/04 08:35:06;;;;;;;1.67;1.17;;;20.60;69.20;;;;;;5052244;28;20616;-68
2023/08/04 08:37:35;;;;;;;2.50;1.20;;;20.60;69.30;;;;;;5052894;28;20183;-69
2023/08/04 08:40:01;;;;;;;1.73;1.52;;;20.60;69.30;;;;;;5051873;28;20167;-68
2023/08/04 08:42:26;;;;;;;1.38;1.23;;;20.60;69.30;;;;;;5038966;28;20318;-67
2023/08/04 08:44:52;;;;;;;1.70;1.20;;;20.60;69.10;;;;;;5032851;28;20241;-68
2023/08/04 08:47:19;;;;;;;1.35;1.08;;;20.60;69.00;;;;;;5031660;28;20655;-66
2023/08/04 08:49:46;;;;;;;2.33;1.38;;;20.60;69.10;;;;;;5031416;28;20187;-66
2023/08/04 08:52:11;;;;;;;2.20;1.25;;;20.60;69.00;;;;;;5031519;28;20294;-66
2023/08/04 08:54:37;;;;;;;2.13;1.30;;;20.60;69.40;;;;;;5032556;28;20254;-66
2023/08/04 08:57:03;;;;;;;3.35;1.25;;;20.60;69.20;;;;;;5032359;28;20176;-66
2023/08/04 08:59:28;;;;;;;2.35;1.40;;;20.60;69.30;;;;;;5030864;28;20288;-69
2023/08/04 09:01:55;;;;;;;2.38;1.33;;;20.60;69.30;;;;;;5031520;28;20254;-69
2023/08/04 09:04:22;;;;;;;2.63;1.25;;;20.60;69.40;;;;;;5032401;28;20642;-69
2023/08/04 09:06:47;;;;;;;1.55;1.30;;;20.60;69.30;;;;;;5031715;28;20219;-68
2023/08/04 09:09:13;;;;;;;2.30;1.45;;;20.60;69.40;;;;;;5032224;28;20187;-69
2023/08/04 09:11:39;;;;;;;1.33;1.10;;;20.60;69.10;;;;;;5032548;28;20211;-66
2023/08/04 09:14:04;;;;;;;1.33;1.23;;;20.60;69.20;;;;;;5031227;28;20168;-68
2023/08/04 09:16:36;;;;;;;2.38;1.63;;;20.70;68.90;;;;;;5030069;28;20234;-68
2023/08/04 09:19:08;;;;;;;1.38;1.20;;;20.70;68.80;;;;;;5031993;28;20183;-67
2023/08/04 09:21:34;;;;;;;1.60;1.42;;;20.70;68.70;;;;;;5031592;28;20180;-68
2023/08/04 09:24:01;;;;;;;1.55;1.05;;;20.80;68.40;;;;;;5032300;28;20468;-67
2023/08/04 09:26:29;;;;;;;2.17;1.45;;;20.80;68.40;;;;;;5032112;28;20686;-68
2023/08/04 09:29:05;;;;;;;1.45;1.27;;;20.80;68.40;;;;;;5030358;28;20179;-68
2023/08/04 09:31:35;;;;;;;3.45;1.38;;;20.80;68.40;;;;;;5032116;28;20646;-68
2023/08/04 09:34:02;;;;;;;1.45;1.00;;;20.80;68.30;;;;;;5032066;28;20187;-69
2023/08/04 09:36:28;;;;;;;1.92;1.35;;;20.80;68.30;;;;;;5030456;28;20179;-70
2023/08/04 09:38:53;;;;;;;1.85;1.45;;;20.80;68.30;;;;;;5032339;28;20512;-69
2023/08/04 09:41:19;;;;;;;1.52;1.23;;;20.90;68.20;;;;;;5030261;28;20641;-68
2023/08/04 09:43:48;;;;;;;2.10;1.30;;;21.00;68.00;;;;;;5031600;28;20245;-68
2023/08/04 09:46:14;;;;;;;1.13;1.02;;;21.00;68.80;;;;;;5031562;28;20246;-68
2023/08/04 09:48:40;;;;;;;1.20;1.10;;;21.00;68.00;;;;;;5031446;28;20530;-68
2023/08/04 09:51:07;;;;;;;2.15;1.30;;;21.00;68.10;;;;;;5031977;28;20179;-67
2023/08/04 09:53:43;;;;;;;2.58;1.30;;;21.00;68.40;;;;;;5032131;28;20184;-68
2023/08/04 09:56:10;;;;;;;1.30;1.15;;;21.00;68.20;;;;;;5030973;28;20545;-68
2023/08/04 09:58:36;;;;;;;1.85;1.10;;;21.10;68.00;;;;;;5031932;28;20677;-69
2023/08/04 10:01:02;;;;;;;1.15;1.05;;;21.10;68.90;;;;;;5031566;28;20219;-69
2023/08/04 10:03:28;;;;;;;1.30;1.20;;;21.10;68.00;;;;;;5031575;28;20184;-71
2023/08/04 10:05:55;;;;;;;2.17;1.40;;;21.10;68.90;;;;;;5031955;28;20215;-69
2023/08/04 10:08:20;;;;;;;1.80;1.52;;;21.10;68.20;;;;;;5031958;28;20178;-69
2023/08/04 10:10:46;;;;;;;1.38;1.20;;;21.10;68.20;;;;;;5030114;28;20180;-68
2023/08/04 10:13:12;;;;;;;1.48;1.02;;;21.10;68.20;;;;;;5030321;28;20267;-67
2023/08/04 10:15:37;;;;;;;1.95;1.50;;;21.10;68.10;;;;;;5030528;28;20553;-68
2023/08/04 10:18:03;;;;;;;1.35;1.15;;;21.20;68.20;;;;;;5030646;28;20176;-68
2023/08/04 10:20:32;;;;;;;1.85;1.30;;;21.10;68.10;;;;;;5031784;28;20271;-67
2023/08/04 10:22:58;;;;;;;2.65;1.50;;;21.10;68.20;;;;;;5030325;28;20182;-68
2023/08/04 10:25:24;;;;;;;1.40;1.10;;;21.20;68.30;;;;;;5031013;28;20286;-67
2023/08/04 10:27:49;;;;;;;1.50;1.38;;;21.20;68.00;;;;;;5033723;28;20642;-67
2023/08/04 10:30:15;;;;;;;1.20;1.10;;;21.40;67.80;;;;;;5035113;28;20179;-68
2023/08/04 10:32:41;;;;;;;1.10;1.10;;;21.40;67.60;;;;;;5034403;28;20172;-68
2023/08/04 10:35:16;;;;;;;1.05;0.95;;;21.50;67.60;;;;;;5035098;28;20176;-69
2023/08/04 10:37:53;;;;;;;1.30;1.20;;;21.40;67.50;;;;;;5034453;28;20179;-69
2023/08/04 10:40:32;;;;;;;1.20;1.10;;;21.50;67.50;;;;;;5034746;28;20183;-69
2023/08/04 10:43:05;;;;;;;1.27;1.10;;;21.50;67.40;;;;;;5034718;28;20227;-68
2023/08/04 10:45:52;;;;;;;1.52;1.30;;;21.50;68.30;;;;;;5034389;28;20211;-68
2023/08/04 10:48:19;;;;;;;2.45;1.23;;;21.40;67.60;;;;;;5034523;28;20172;-68
2023/08/04 10:50:45;;;;;;;2.13;1.38;;;21.40;67.60;;;;;;5034812;28;20191;-68
2023/08/04 10:53:10;;;;;;;1.30;1.20;;;21.40;67.80;;;;;;5032505;28;20186;-68
2023/08/04 10:55:36;;;;;;;0.90;0.80;;;21.50;67.80;;;;;;5033626;28;20167;-67
2023/08/04 10:58:13;;;;;;;2.20;1.40;;;21.40;67.80;;;;;;5034442;28;20681;-68
2023/08/04 11:00:44;;;;;;;1.77;1.02;;;21.40;68.20;;;;;;5034227;28;20182;-69
2023/08/04 11:03:23;;;;;;;1.50;1.40;;;21.50;67.90;;;;;;5034500;28;20194;-69
2023/08/04 11:05:50;;;;;;;1.33;1.17;;;21.50;67.70;;;;;;5033643;28;20223;-69
2023/08/04 11:08:15;;;;;;;1.17;1.08;;;21.50;67.60;;;;;;5034345;28;20240;-68
2023/08/04 11:10:46;;;;;;;1.15;1.13;;;21.60;67.60;;;;;;5033286;28;20265;-68
2023/08/04 11:13:11;;;;;;;1.67;1.20;;;21.50;67.50;;;;;;5033561;28;20184;-67
2023/08/04 11:15:43;;;;;;;1.23;0.90;;;21.50;67.50;;;;;;5033180;28;20173;-68
2023/08/04 11:18:14;;;;;;;1.33;1.10;;;21.50;67.50;;;;;;5034340;28;20180;-67
2023/08/04 11:20:40;;;;;;;1.08;1.02;;;21.50;67.50;;;;;;5033872;28;20225;-68
2023/08/04 11:23:08;;;;;;;1.02;0.93;;;21.60;67.50;;;;;;5034238;28;20203;-67
2023/08/04 11:25:34;;;;;;;1.10;1.05;;;21.60;67.50;;;;;;5034101;28;20208;-66
2023/08/04 11:28:03;;;;;;;1.65;1.25;;;21.60;68.50;;;;;;5032104;28;20247;-67
2023/08/04 11:30:28;;;;;;;1.38;0.90;;;21.60;67.50;;;;;;5034294;28;20288;-67
2023/08/04 11:32:54;;;;;;;1.60;1.10;;;21.70;67.40;;;;;;5034421;28;20251;-68
2023/08/04 11:35:20;;;;;;;1.92;1.42;;;21.70;67.80;;;;;;5033135;28;20230;-69
2023/08/04 11:37:45;;;;;;;1.35;1.25;;;21.60;67.30;;;;;;5034155;28;20180;-69
2023/08/04 11:40:21;;;;;;;1.17;0.80;;;21.60;67.50;;;;;;5032911;28;20175;-68
2023/08/04 11:42:47;;;;;;;1.95;1.00;;;21.50;67.70;;;;;;5033034;28;20226;-67
2023/08/04 11:45:12;;;;;;;1.48;1.02;;;21.50;67.90;;;;;;5032295;28;20634;-68
2023/08/04 11:47:38;;;;;;;1.95;1.40;;;21.40;68.00;;;;;;5034106;28;20222;-68
2023/08/04 11:50:04;;;;;;;1.30;1.10;;;21.40;68.10;;;;;;5032851;28;20203;-66
2023/08/04 11:52:30;;;;;;;1.23;1.13;;;21.50;68.00;;;;;;5032696;28;20266;-66
2023/08/04 11:54:59;;;;;;;1.02;1.00;;;21.60;67.70;;;;;;5033590;28;20259;-66
2023/08/04 11:57:25;;;;;;;1.00;1.00;;;21.60;67.70;;;;;;5033090;28;20180;-67
2023/08/04 11:59:51;;;;;;;1.13;0.90;;;21.60;67.70;;;;;;5033515;28;20574;-67
2023/08/04 12:02:17;;;;;;;1.27;1.17;;;21.50;67.90;;;;;;5032624;28;20190;-67
2023/08/04 12:04:42;;;;;;;1.65;1.00;;;21.50;67.80;;;;;;5033631;28;20274;-67
2023/08/04 12:07:11;;;;;;;1.60;1.20;;;21.50;67.90;;;;;;5033154;28;20295;-67
2023/08/04 12:09:36;;;;;;;1.42;1.27;;;21.50;68.00;;;;;;5032868;28;20179;-67
2023/08/04 12:12:05;;;;;;;1.20;0.90;;;21.50;67.90;;;;;;5032988;28;20184;-66
2023/08/04 12:14:31;;;;;;;1.90;1.20;;;21.50;67.80;;;;;;5033762;28;20220;-66
2023/08/04 12:16:57;;;;;;;1.42;1.17;;;21.50;67.90;;;;;;5031255;28;20180;-66
2023/08/04 12:19:24;;;;;;;1.33;1.00;;;21.50;67.90;;;;;;5033489;28;20677;-66
2023/08/04 12:21:50;;;;;;;1.98;1.30;;;21.50;68.00;;;;;;5033284;28;20212;-66
2023/08/04 12:24:16;;;;;;;1.20;1.10;;;21.60;67.70;;;;;;5032385;28;21057;-66
2023/08/04 12:26:42;;;;;;;0.93;0.93;;;21.70;67.30;;;;;;5032944;28;20697;-66
2023/08/04 12:29:09;;;;;;;1.63;0.98;;;21.60;67.30;;;;;;5032803;28;20575;-67
2023/08/04 12:31:34;;;;;;;1.20;1.10;;;21.70;67.40;;;;;;5032199;28;20599;-68
2023/08/04 12:34:00;;;;;;;1.20;1.10;;;21.60;68.20;;;;;;5032692;28;20176;-68
2023/08/04 12:36:25;;;;;;;1.52;1.10;;;21.70;67.20;;;;;;5033124;28;20260;-69
2023/08/04 12:38:51;;;;;;;1.17;1.08;;;21.80;67.00;;;;;;5032211;28;20254;-67
2023/08/04 12:41:16;;;;;;;1.65;1.27;;;21.90;66.90;;;;;;5032386;28;20274;-67
2023/08/04 12:43:42;;;;;;;1.30;1.20;;;21.90;66.80;;;;;;5032923;28;20183;-67